Time;durP1;ratioP1;P1;durP2;ratioP2;P2;SDS_P1;SDS_P2;PMS_P1;PMS_P2;Temp;Humidity;BMP_temperature;BMP_pressure;BME280_temperature;BME280_humidity;BME280_pressure;Samples;Min_cycle;Max_cycle;Signal;HPM_P1;HPM_P2
2022/04/13 00:01:36;;;;;;;7.78;5.35;;;;;;;;;;6189378;23;20028;-80
2022/04/13 00:04:05;;;;;;;8.32;6.40;;;;;;;;;;6181321;23;20021;-80
2022/04/13 00:06:38;;;;;;;7.15;5.07;;;;;;;;;;6158751;23;20476;-80
2022/04/13 00:09:07;;;;;;;6.65;4.75;;;;;;;;;;6189462;23;20024;-79
2022/04/13 00:11:36;;;;;;;5.68;5.00;;;;;;;;;;6192317;23;20440;-80
2022/04/13 00:14:07;;;;;;;6.15;3.53;;;;;;;;;;6186846;23;20032;-80
2022/04/13 00:16:35;;;;;;;6.22;5.47;;;;;;;;;;6155543;23;20028;-80
2022/04/13 00:19:03;;;;;;;5.47;4.10;;;;;;;;;;6156071;23;20025;-80
2022/04/13 00:21:32;;;;;;;9.82;5.78;;;;;;;;;;6154279;23;20032;-80
2022/04/13 00:24:00;;;;;;;7.07;4.78;;;;;;;;;;6165157;23;20020;-80
2022/04/13 00:26:28;;;;;;;9.27;4.50;;;;;;;;;;6185157;23;20021;-79
2022/04/13 00:28:56;;;;;;;4.63;3.83;;;;;;;;;;6165973;23;20021;-80
2022/04/13 00:31:24;;;;;;;12.05;7.20;;;;;;;;;;6181062;23;20051;-80
2022/04/13 00:33:53;;;;;;;10.00;4.70;;;;;;;;;;6187192;23;20013;-79
2022/04/13 00:36:21;;;;;;;6.78;4.75;;;;;;;;;;6165921;23;20014;-80
2022/04/13 00:38:49;;;;;;;9.68;4.30;;;;;;;;;;6150445;23;20020;-79
2022/04/13 00:41:17;;;;;;;7.63;4.85;;;;;;;;;;6130344;23;20045;-80
2022/04/13 00:43:45;;;;;;;7.07;5.82;;;;;;;;;;6155507;23;20025;-80
2022/04/13 00:46:13;;;;;;;6.72;4.40;;;;;;;;;;6184249;23;20352;-79
2022/04/13 00:48:45;;;;;;;6.60;5.22;;;;;;;;;;6191700;23;20571;-80
2022/04/13 00:51:15;;;;;;;;;;;;;;;;;;6182450;23;20029;-79
2022/04/13 00:53:43;;;;;;;4.10;3.70;;;;;;;;;;6161235;23;20244;-79
2022/04/13 00:56:13;;;;;;;6.10;4.63;;;;;;;;;;6192317;23;20017;-79
2022/04/13 00:58:41;;;;;;;7.70;5.35;;;;;;;;;;6157867;23;20352;-80
2022/04/13 01:01:09;;;;;;;5.78;4.60;;;;;;;;;;6190456;23;20039;-79
2022/04/13 01:03:37;;;;;;;9.45;4.30;;;;;;;;;;6191391;23;20010;-80
2022/04/13 01:06:07;;;;;;;5.15;4.70;;;;;;;;;;6187633;23;20025;-80
2022/04/13 01:08:35;;;;;;;5.82;3.38;;;;;;;;;;6192797;23;20009;-80
2022/04/13 01:11:04;;;;;;;6.03;5.55;;;;;;;;;;6184693;23;20032;-79
2022/04/13 01:13:32;;;;;;;5.50;4.60;;;;;;;;;;6190319;23;20017;-80
2022/04/13 01:16:00;;;;;;;7.47;5.57;;;;;;;;;;6183402;23;20029;-79
2022/04/13 01:18:28;;;;;;;5.80;4.90;;;;;;;;;;6186309;23;20036;-80
2022/04/13 01:20:57;;;;;;;6.40;3.40;;;;;;;;;;6193699;23;20020;-79
2022/04/13 01:23:25;;;;;;;6.28;4.88;;;;;;;;;;6130673;23;20028;-86
2022/04/13 01:25:54;;;;;;;8.70;4.90;;;;;;;;;;6131896;23;20025;-86
2022/04/13 01:28:23;;;;;;;7.85;5.97;;;;;;;;;;6155575;23;20017;-87
2022/04/13 01:30:57;;;;;;;4.88;4.38;;;;;;;;;;6155764;23;20029;-86
2022/04/13 01:33:29;;;;;;;7.85;4.05;;;;;;;;;;6131933;23;20033;-86
2022/04/13 01:36:01;;;;;;;7.60;5.43;;;;;;;;;;6157217;23;20044;-87
2022/04/13 01:38:29;;;;;;;8.27;4.93;;;;;;;;;;6155171;23;20025;-86
2022/04/13 01:40:58;;;;;;;11.98;5.78;;;;;;;;;;6108017;23;20028;-83
2022/04/13 01:43:26;;;;;;;8.18;4.70;;;;;;;;;;6167558;23;20013;-86
2022/04/13 01:45:55;;;;;;;7.45;5.05;;;;;;;;;;6184146;23;20345;-86
2022/04/13 01:48:23;;;;;;;8.80;4.70;;;;;;;;;;6166770;23;20463;-87
2022/04/13 01:50:51;;;;;;;5.20;4.70;;;;;;;;;;6132112;23;20360;-86
2022/04/13 01:53:19;;;;;;;6.90;5.32;;;;;;;;;;6164701;23;20032;-87
2022/04/13 01:55:47;;;;;;;8.77;6.93;;;;;;;;;;6167762;23;20021;-86
2022/04/13 01:58:15;;;;;;;6.43;5.10;;;;;;;;;;6187254;23;20025;-87
2022/04/13 02:00:43;;;;;;;6.53;5.70;;;;;;;;;;6193587;23;20032;-86
2022/04/13 02:03:15;;;;;;;7.63;4.28;;;;;;;;;;6183477;23;20064;-86
2022/04/13 02:05:43;;;;;;;5.35;4.38;;;;;;;;;;6132165;23;20017;-86
2022/04/13 02:08:11;;;;;;;7.90;7.10;;;;;;;;;;6131265;23;20017;-86
2022/04/13 02:10:39;;;;;;;11.55;7.38;;;;;;;;;;6185892;23;20032;-87
2022/04/13 02:13:07;;;;;;;8.05;6.72;;;;;;;;;;6156243;23;20028;-86
2022/04/13 02:15:35;;;;;;;8.05;5.18;;;;;;;;;;6132585;23;20329;-86
2022/04/13 02:18:03;;;;;;;9.68;6.93;;;;;;;;;;6130636;23;20021;-87
2022/04/13 02:20:31;;;;;;;11.55;9.18;;;;;;;;;;6166920;23;20013;-87
2022/04/13 02:23:01;;;;;;;11.05;7.75;;;;;;;;;;6183967;23;20032;-87
2022/04/13 02:25:30;;;;;;;7.07;4.53;;;;;;;;;;6190547;23;20017;-87
2022/04/13 02:27:58;;;;;;;7.43;5.82;;;;;;;;;;6193152;23;20020;-87
2022/04/13 02:30:26;;;;;;;10.27;6.93;;;;;;;;;;6156241;23;20021;-87
2022/04/13 02:32:54;;;;;;;10.82;7.35;;;;;;;;;;6167203;23;20016;-87
2022/04/13 02:35:22;;;;;;;6.18;5.45;;;;;;;;;;6182355;23;20036;-87
2022/04/13 02:37:50;;;;;;;6.05;5.50;;;;;;;;;;6155138;23;20528;-86
2022/04/13 02:40:19;;;;;;;11.38;8.05;;;;;;;;;;6132172;23;20017;-87
2022/04/13 02:42:47;;;;;;;8.65;6.43;;;;;;;;;;6185081;23;20028;-87
2022/04/13 02:45:15;;;;;;;7.20;5.22;;;;;;;;;;6162743;23;20025;-87
2022/04/13 02:47:43;;;;;;;12.45;6.88;;;;;;;;;;6166189;23;20016;-86
2022/04/13 02:50:11;;;;;;;8.27;6.00;;;;;;;;;;6187459;23;20021;-87
2022/04/13 02:52:40;;;;;;;9.93;5.00;;;;;;;;;;6166594;23;20360;-86
2022/04/13 02:55:10;;;;;;;11.07;6.53;;;;;;;;;;6157211;23;20044;-86
2022/04/13 02:57:38;;;;;;;7.93;5.20;;;;;;;;;;6154903;23;20025;-86
2022/04/13 03:00:06;;;;;;;8.65;5.80;;;;;;;;;;6193122;23;20483;-86
2022/04/13 03:02:34;;;;;;;6.50;4.75;;;;;;;;;;6159072;23;20037;-86
2022/04/13 03:05:03;;;;;;;9.75;5.65;;;;;;;;;;6191585;23;20036;-86
2022/04/13 03:07:32;;;;;;;10.15;6.93;;;;;;;;;;6155803;23;20326;-86
2022/04/13 03:10:00;;;;;;;8.32;7.50;;;;;;;;;;6160780;23;20017;-87
2022/04/13 03:12:28;;;;;;;8.43;4.85;;;;;;;;;;6166517;23;20030;-86
2022/04/13 03:14:56;;;;;;;7.68;4.82;;;;;;;;;;6155666;23;20489;-87
2022/04/13 03:17:24;;;;;;;9.88;6.88;;;;;;;;;;6155458;23;20109;-86
2022/04/13 03:19:52;;;;;;;10.02;6.82;;;;;;;;;;6165550;23;20028;-87
2022/04/13 03:22:24;;;;;;;11.38;6.72;;;;;;;;;;6131011;23;20460;-86
2022/04/13 03:24:52;;;;;;;9.07;5.85;;;;;;;;;;6192120;23;20024;-86
2022/04/13 03:27:20;;;;;;;7.25;6.20;;;;;;;;;;6182066;23;20025;-86
2022/04/13 03:29:48;;;;;;;9.05;5.38;;;;;;;;;;6188229;23;20028;-86
2022/04/13 03:32:16;;;;;;;8.60;4.63;;;;;;;;;;6192705;23;20020;-87
2022/04/13 03:34:44;;;;;;;16.45;6.72;;;;;;;;;;6184363;23;20021;-86
2022/04/13 03:37:12;;;;;;;10.88;6.03;;;;;;;;;;6190560;23;20013;-86
2022/04/13 03:39:40;;;;;;;7.28;4.68;;;;;;;;;;6191322;23;20013;-87
2022/04/13 03:42:08;;;;;;;7.28;5.20;;;;;;;;;;6187183;23;20021;-87
2022/04/13 03:44:36;;;;;;;5.30;4.80;;;;;;;;;;6155906;23;20024;-86
2022/04/13 03:47:06;;;;;;;6.50;5.28;;;;;;;;;;6155286;23;20345;-87
2022/04/13 03:49:34;;;;;;;13.25;7.43;;;;;;;;;;6161951;23;20021;-87
2022/04/13 03:52:02;;;;;;;12.52;7.40;;;;;;;;;;6192470;23;20013;-86
2022/04/13 03:54:30;;;;;;;7.20;5.63;;;;;;;;;;6158291;23;20036;-87
2022/04/13 03:56:58;;;;;;;5.68;5.20;;;;;;;;;;6191834;23;20329;-86
2022/04/13 03:59:26;;;;;;;12.60;6.00;;;;;;;;;;6192212;23;20441;-87
2022/04/13 04:01:54;;;;;;;9.63;6.55;;;;;;;;;;6155398;23;20317;-86
2022/04/13 04:04:23;;;;;;;6.35;5.50;;;;;;;;;;6155484;23;20021;-87
2022/04/13 04:06:53;;;;;;;6.65;5.95;;;;;;;;;;6183804;23;20025;-86
2022/04/13 04:09:21;;;;;;;8.40;5.63;;;;;;;;;;6189000;23;20028;-86
2022/04/13 04:11:49;;;;;;;11.45;5.68;;;;;;;;;;6155719;23;20017;-87
2022/04/13 04:14:17;;;;;;;10.77;5.70;;;;;;;;;;6160007;23;20032;-86
2022/04/13 04:16:45;;;;;;;6.93;6.35;;;;;;;;;;6192180;23;20013;-86
2022/04/13 04:19:13;;;;;;;4.95;4.22;;;;;;;;;;6154697;23;20032;-86
2022/04/13 04:21:41;;;;;;;7.90;4.78;;;;;;;;;;6106446;23;20036;-87
2022/04/13 04:24:09;;;;;;;7.03;4.55;;;;;;;;;;6130627;23;20318;-86
2022/04/13 04:26:37;;;;;;;8.77;6.05;;;;;;;;;;6158619;23;20040;-86
2022/04/13 04:29:05;;;;;;;7.40;6.43;;;;;;;;;;6164357;23;20021;-87
2022/04/13 04:32:07;;;;;;;5.55;4.40;;;;;;;;;;6131162;23;20017;-87
2022/04/13 04:34:27;;;;;;;5.75;5.13;;;;;;;;;;6127608;23;20028;-87
2022/04/13 04:36:55;;;;;;;6.82;6.10;;;;;;;;;;6166170;23;20020;-87
2022/04/13 04:39:23;;;;;;;11.73;5.43;;;;;;;;;;6180115;23;20032;-86
2022/04/13 04:41:51;;;;;;;11.55;6.25;;;;;;;;;;6163315;23;20025;-87
2022/04/13 04:44:19;;;;;;;26.27;6.13;;;;;;;;;;6167992;23;20013;-87
2022/04/13 04:46:47;;;;;;;7.72;6.07;;;;;;;;;;6184001;23;20484;-87
2022/04/13 04:49:15;;;;;;;6.22;5.63;;;;;;;;;;6165487;23;20052;-86
2022/04/13 04:51:43;;;;;;;6.78;6.28;;;;;;;;;;6194087;23;20436;-86
2022/04/13 04:54:11;;;;;;;5.72;5.25;;;;;;;;;;6155672;23;20033;-86
2022/04/13 04:56:39;;;;;;;5.28;4.63;;;;;;;;;;6194274;23;20638;-87
2022/04/13 04:59:07;;;;;;;5.93;4.65;;;;;;;;;;6183846;23;20033;-86
2022/04/13 05:01:35;;;;;;;9.93;5.68;;;;;;;;;;6164575;23;20326;-86
2022/04/13 05:04:04;;;;;;;7.72;5.97;;;;;;;;;;6193771;23;20047;-86
2022/04/13 05:06:32;;;;;;;5.55;5.05;;;;;;;;;;6183284;23;20021;-87
2022/04/13 05:08:59;;;;;;;10.27;7.18;;;;;;;;;;6192195;23;20428;-87
2022/04/13 05:11:27;;;;;;;6.18;5.68;;;;;;;;;;6194212;23;20467;-87
2022/04/13 05:13:55;;;;;;;6.88;5.88;;;;;;;;;;6189074;23;20017;-86
2022/04/13 05:16:23;;;;;;;9.32;6.10;;;;;;;;;;6157470;23;20467;-87
2022/04/13 05:18:52;;;;;;;8.18;6.18;;;;;;;;;;6185113;23;20021;-86
2022/04/13 05:21:20;;;;;;;10.02;5.35;;;;;;;;;;6165506;23;20433;-87
2022/04/13 05:23:48;;;;;;;6.07;5.18;;;;;;;;;;6192939;23;20445;-87
2022/04/13 05:26:18;;;;;;;6.80;5.97;;;;;;;;;;6161463;23;20357;-87
2022/04/13 05:28:50;;;;;;;5.10;4.53;;;;;;;;;;6166837;23;20020;-86
2022/04/13 05:31:18;;;;;;;6.07;5.47;;;;;;;;;;6157825;23;20036;-86
2022/04/13 05:33:46;;;;;;;9.88;6.05;;;;;;;;;;6189673;23;20016;-87
2022/04/13 05:36:14;;;;;;;7.63;6.93;;;;;;;;;;6193752;23;20024;-87
2022/04/13 05:38:42;;;;;;;6.63;5.25;;;;;;;;;;6184987;23;20029;-87
2022/04/13 05:41:10;;;;;;;10.82;6.15;;;;;;;;;;6156571;23;20017;-86
2022/04/13 05:43:38;;;;;;;7.63;5.40;;;;;;;;;;6193746;23;20009;-87
2022/04/13 05:46:07;;;;;;;5.82;5.32;;;;;;;;;;6186071;23;20345;-86
2022/04/13 05:48:35;;;;;;;5.68;5.15;;;;;;;;;;6192701;23;20025;-87
2022/04/13 05:51:03;;;;;;;8.23;5.97;;;;;;;;;;6184077;23;20025;-86
2022/04/13 05:53:31;;;;;;;5.15;4.65;;;;;;;;;;6163594;23;20021;-86
2022/04/13 05:56:00;;;;;;;8.00;6.55;;;;;;;;;;6158811;23;20016;-85
2022/04/13 05:58:28;;;;;;;6.50;4.93;;;;;;;;;;6186012;23;20037;-86
2022/04/13 06:00:56;;;;;;;6.78;6.18;;;;;;;;;;6193319;23;20020;-86
2022/04/13 06:03:24;;;;;;;7.88;6.35;;;;;;;;;;6181923;23;20017;-86
2022/04/13 06:06:09;;;;;;;8.68;6.82;;;;;;;;;;6187656;23;20017;-86
2022/04/13 06:08:38;;;;;;;6.05;5.45;;;;;;;;;;6155863;23;20349;-87
2022/04/13 06:11:06;;;;;;;7.85;5.07;;;;;;;;;;6183947;23;20021;-87
2022/04/13 06:13:34;;;;;;;9.93;5.63;;;;;;;;;;6190043;23;20471;-86
2022/04/13 06:16:02;;;;;;;6.95;4.65;;;;;;;;;;6132651;23;20017;-86
2022/04/13 06:18:30;;;;;;;7.13;6.20;;;;;;;;;;6131055;23;20352;-86
2022/04/13 06:20:58;;;;;;;7.13;5.10;;;;;;;;;;6156288;23;20021;-84
2022/04/13 06:23:26;;;;;;;8.75;7.05;;;;;;;;;;6192376;23;20020;-86
2022/04/13 06:25:54;;;;;;;11.52;9.07;;;;;;;;;;6162473;23;20013;-87
2022/04/13 06:28:22;;;;;;;10.60;5.45;;;;;;;;;;6192823;23;20452;-86
2022/04/13 06:30:50;;;;;;;9.20;7.50;;;;;;;;;;6184885;23;20025;-86
2022/04/13 06:33:19;;;;;;;6.38;5.72;;;;;;;;;;6164512;23;20025;-86
2022/04/13 06:35:47;;;;;;;5.45;4.95;;;;;;;;;;6167207;23;20031;-86
2022/04/13 06:38:15;;;;;;;5.30;4.20;;;;;;;;;;6155297;23;20021;-86
2022/04/13 06:40:43;;;;;;;4.88;4.47;;;;;;;;;;6166497;23;20013;-87
2022/04/13 06:43:11;;;;;;;4.88;4.38;;;;;;;;;;6155781;23;20051;-86
2022/04/13 06:45:40;;;;;;;11.60;4.55;;;;;;;;;;6161225;23;20016;-87
2022/04/13 06:48:09;;;;;;;5.38;4.88;;;;;;;;;;6192629;23;20032;-86
2022/04/13 06:50:37;;;;;;;8.82;4.18;;;;;;;;;;6159372;23;20025;-87
2022/04/13 06:53:05;;;;;;;5.20;4.47;;;;;;;;;;6154939;23;20479;-87
2022/04/13 06:55:34;;;;;;;5.07;3.80;;;;;;;;;;6156447;23;20024;-87
2022/04/13 06:58:02;;;;;;;5.88;5.28;;;;;;;;;;6187322;23;20495;-87
2022/04/13 07:00:30;;;;;;;6.72;5.25;;;;;;;;;;6192817;23;20017;-87
2022/04/13 07:02:58;;;;;;;4.53;4.03;;;;;;;;;;6157154;23;20379;-85
2022/04/13 07:05:42;;;;;;;3.60;3.28;;;;;;;;;;6155208;23;20024;-86
2022/04/13 07:08:10;;;;;;;2.95;2.72;;;;;;;;;;6165170;23;20020;-86
2022/04/13 07:10:38;;;;;;;4.20;3.42;;;;;;;;;;6159263;23;20029;-86
2022/04/13 07:13:10;;;;;;;;;;;;;;;;;;6192060;23;20036;-87
2022/04/13 07:15:39;;;;;;;6.45;3.72;;;;;;;;;;6131522;23;20391;-87
2022/04/13 07:18:07;;;;;;;5.60;4.22;;;;;;;;;;6186396;23;20021;-87
2022/04/13 07:20:35;;;;;;;6.05;4.45;;;;;;;;;;6193017;23;20017;-88
2022/04/13 07:23:03;;;;;;;8.30;5.00;;;;;;;;;;6182684;23;20441;-88
2022/04/13 07:25:32;;;;;;;8.40;4.22;;;;;;;;;;6189736;23;20017;-86
2022/04/13 07:28:00;;;;;;;6.13;4.70;;;;;;;;;;6192379;23;20013;-87
2022/04/13 07:30:28;;;;;;;5.75;4.63;;;;;;;;;;6185520;23;20028;-87
2022/04/13 07:33:01;;;;;;;5.18;4.65;;;;;;;;;;6192287;23;20032;-87
2022/04/13 07:35:31;;;;;;;4.03;3.67;;;;;;;;;;6155300;23;20033;-86
2022/04/13 07:37:59;;;;;;;4.90;3.47;;;;;;;;;;6160325;23;20017;-86
2022/04/13 07:40:27;;;;;;;3.47;3.10;;;;;;;;;;6155935;23;20024;-86
2022/04/13 07:42:55;;;;;;;11.30;4.80;;;;;;;;;;6157289;23;20031;-86
2022/04/13 07:45:23;;;;;;;9.00;3.88;;;;;;;;;;6161908;23;20017;-87
2022/04/13 07:47:52;;;;;;;4.35;3.88;;;;;;;;;;6130930;23;20020;-87
2022/04/13 07:50:20;;;;;;;10.75;5.18;;;;;;;;;;6155204;23;20021;-87
2022/04/13 07:52:48;;;;;;;3.90;3.45;;;;;;;;;;6192276;23;20499;-87
2022/04/13 07:55:16;;;;;;;4.35;3.97;;;;;;;;;;6181907;23;20028;-87
2022/04/13 07:57:44;;;;;;;8.50;4.88;;;;;;;;;;6188285;23;20028;-87
2022/04/13 08:00:12;;;;;;;7.45;4.63;;;;;;;;;;6131088;23;20039;-86
2022/04/13 08:02:43;;;;;;;5.50;4.90;;;;;;;;;;6158023;23;20032;-87
2022/04/13 08:05:12;;;;;;;5.60;3.53;;;;;;;;;;6130938;23;20077;-86
2022/04/13 08:07:40;;;;;;;19.42;4.95;;;;;;;;;;6191468;23;20024;-87
2022/04/13 08:10:09;;;;;;;5.07;3.42;;;;;;;;;;6154783;23;20029;-86
2022/04/13 08:12:39;;;;;;;4.82;3.38;;;;;;;;;;6131384;23;20017;-87
2022/04/13 08:15:07;;;;;;;5.03;4.63;;;;;;;;;;6156076;23;20555;-87
2022/04/13 08:17:38;;;;;;;4.43;3.58;;;;;;;;;;6130420;23;20252;-87
2022/04/13 08:20:14;;;;;;;6.53;5.15;;;;;;;;;;6131266;23;20464;-87
2022/04/13 08:22:45;;;;;;;3.65;3.33;;;;;;;;;;6157368;23;20036;-88
2022/04/13 08:25:14;;;;;;;4.03;2.92;;;;;;;;;;6130250;23;20109;-88
2022/04/13 08:27:44;;;;;;;4.55;4.15;;;;;;;;;;6165525;23;20013;-88
2022/04/13 08:30:13;;;;;;;5.53;3.17;;;;;;;;;;6130369;23;20032;-88
2022/04/13 08:32:41;;;;;;;7.00;4.53;;;;;;;;;;6131131;23;20028;-87
2022/04/13 08:35:10;;;;;;;6.57;4.13;;;;;;;;;;6182200;23;20032;-87
2022/04/13 08:37:39;;;;;;;4.07;3.78;;;;;;;;;;6187779;23;20028;-87
2022/04/13 08:40:09;;;;;;;43.03;5.10;;;;;;;;;;6191760;23;20013;-87
2022/04/13 08:42:37;;;;;;;12.55;5.05;;;;;;;;;;6130668;23;20036;-87
2022/04/13 08:45:09;;;;;;;6.40;4.57;;;;;;;;;;6162797;23;20021;-86
2022/04/13 08:47:42;;;;;;;5.20;4.00;;;;;;;;;;6165293;23;20483;-87
2022/04/13 08:50:12;;;;;;;10.68;5.57;;;;;;;;;;6186210;23;20025;-88
2022/04/13 08:52:40;;;;;;;4.37;3.97;;;;;;;;;;6165419;23;20024;-86
2022/04/13 08:55:16;;;;;;;4.97;4.57;;;;;;;;;;6181999;23;20029;-87
2022/04/13 08:57:48;;;;;;;10.18;4.60;;;;;;;;;;6161921;23;20024;-88
2022/04/13 09:00:18;;;;;;;4.70;4.20;;;;;;;;;;6191796;23;20024;-88
2022/04/13 09:02:51;;;;;;;6.45;5.75;;;;;;;;;;6181166;23;20021;-87
2022/04/13 09:05:21;;;;;;;5.93;5.03;;;;;;;;;;6163505;23;20052;-87
2022/04/13 09:07:50;;;;;;;5.50;4.88;;;;;;;;;;6191135;23;20013;-87
2022/04/13 09:10:20;;;;;;;8.73;4.15;;;;;;;;;;6185619;23;20353;-87
2022/04/13 09:12:50;;;;;;;6.60;5.63;;;;;;;;;;6165554;23;20013;-88
2022/04/13 09:15:20;;;;;;;5.30;4.60;;;;;;;;;;6181729;23;20025;-88
2022/04/13 09:17:48;;;;;;;7.22;4.38;;;;;;;;;;6161005;23;20016;-88
2022/04/13 09:20:16;;;;;;;6.20;4.80;;;;;;;;;;6191952;23;20520;-88
2022/04/13 09:22:44;;;;;;;8.25;5.03;;;;;;;;;;6157274;23;20032;-88
2022/04/13 09:25:12;;;;;;;5.63;3.95;;;;;;;;;;6163232;23;20016;-88
2022/04/13 09:27:40;;;;;;;6.72;4.88;;;;;;;;;;6132268;23;20028;-88
2022/04/13 09:30:09;;;;;;;8.90;5.20;;;;;;;;;;6156714;23;20028;-88
2022/04/13 09:32:38;;;;;;;5.03;4.57;;;;;;;;;;6143086;23;20028;-88
2022/04/13 09:35:07;;;;;;;6.70;4.32;;;;;;;;;;6157815;23;20494;-89
2022/04/13 09:37:35;;;;;;;6.82;6.22;;;;;;;;;;6131592;23;20017;-89
2022/04/13 09:40:03;;;;;;;5.50;5.07;;;;;;;;;;6132188;23;20032;-89
2022/04/13 09:42:31;;;;;;;7.55;4.03;;;;;;;;;;6156287;23;20025;-89
2022/04/13 09:45:03;;;;;;;11.95;4.40;;;;;;;;;;6127122;23;20029;-88
2022/04/13 09:47:33;;;;;;;4.22;3.88;;;;;;;;;;6162973;23;20018;-88
2022/04/13 09:50:01;;;;;;;5.55;4.03;;;;;;;;;;6158803;23;20033;-87
2022/04/13 09:52:33;;;;;;;5.47;4.10;;;;;;;;;;6161588;23;20020;-88
2022/04/13 09:55:05;;;;;;;5.78;3.80;;;;;;;;;;6154512;23;20026;-89
2022/04/13 09:57:33;;;;;;;4.22;3.85;;;;;;;;;;6151159;23;20022;-88
2022/04/13 10:00:03;;;;;;;8.10;4.82;;;;;;;;;;6152021;23;20337;-88
2022/04/13 10:02:39;;;;;;;5.35;4.18;;;;;;;;;;6155922;23;20029;-88
2022/04/13 10:05:20;;;;;;;4.22;3.92;;;;;;;;;;6152798;23;20026;-88
2022/04/13 10:07:48;;;;;;;;;;;;;;;;;;6102763;23;20021;-89
2022/04/13 10:10:25;;;;;;;4.50;4.10;;;;;;;;;;6101728;23;19921;-87
2022/04/13 10:12:55;;;;;;;5.28;3.28;;;;;;;;;;6102812;23;20017;-87
2022/04/13 10:15:23;;;;;;;3.90;3.55;;;;;;;;;;6126681;23;20029;-88
2022/04/13 10:17:56;;;;;;;5.60;3.50;;;;;;;;;;6158493;23;20021;-89
2022/04/13 10:20:29;;;;;;;4.65;3.50;;;;;;;;;;6163344;23;20009;-88
2022/04/13 10:22:58;;;;;;;6.00;4.45;;;;;;;;;;6154120;23;20022;-87
2022/04/13 10:25:27;;;;;;;4.70;3.05;;;;;;;;;;6126217;23;20024;-89
2022/04/13 10:27:56;;;;;;;4.60;3.65;;;;;;;;;;6102401;23;20025;-88
2022/04/13 10:30:32;;;;;;;2.75;2.42;;;;;;;;;;6156707;23;20357;-88
2022/04/13 10:33:00;;;;;;;7.32;2.17;;;;;;;;;;6162324;23;20051;-87
2022/04/13 10:35:28;;;;;;;5.25;2.15;;;;;;;;;;6163086;23;20013;-88
2022/04/13 10:37:56;;;;;;;6.63;3.05;;;;;;;;;;6157160;23;20028;-88
2022/04/13 10:40:26;;;;;;;4.45;4.05;;;;;;;;;;6163221;23;20046;-89
2022/04/13 10:42:58;;;;;;;2.90;2.70;;;;;;;;;;6126450;23;20101;-88
2022/04/13 10:45:27;;;;;;;3.50;3.20;;;;;;;;;;6160523;23;20021;-87
2022/04/13 10:48:06;;;;;;;4.72;3.40;;;;;;;;;;6127068;23;20028;-88
2022/04/13 10:50:37;;;;;;;3.95;3.35;;;;;;;;;;6156137;23;20025;-87
2022/04/13 10:53:05;;;;;;;;;;;;;;;;;;6161926;23;20017;-87
2022/04/13 10:55:35;;;;;;;5.60;3.25;;;;;;;;;;6161759;23;19920;-87
2022/04/13 10:58:22;;;;;;;7.50;3.83;;;;;;;;;;6157944;23;20024;-87
2022/04/13 11:00:54;;;;;;;4.53;3.60;;;;;;;;;;6163001;23;20020;-86
2022/04/13 11:03:25;;;;;;;8.35;5.15;;;;;;;;;;6152109;23;20028;-86
2022/04/13 11:05:54;;;;;;;4.60;4.20;;;;;;;;;;6129855;23;20361;-87
2022/04/13 11:08:25;;;;;;;4.05;3.30;;;;;;;;;;6160155;23;20021;-87
2022/04/13 11:10:54;;;;;;;6.93;4.03;;;;;;;;;;6152274;23;20029;-85
2022/04/13 11:13:23;;;;;;;5.75;3.35;;;;;;;;;;6150570;23;20021;-87
2022/04/13 11:16:13;;;;;;;7.57;3.70;;;;;;;;;;6163116;23;20424;-85
2022/04/13 11:18:42;;;;;;;5.57;3.45;;;;;;;;;;6124789;23;20030;-86
2022/04/13 11:21:10;;;;;;;4.78;3.13;;;;;;;;;;6126151;23;20013;-87
2022/04/13 11:23:42;;;;;;;4.57;4.18;;;;;;;;;;6160884;23;20016;-87
2022/04/13 11:26:10;;;;;;;;;;;;;;;;;;6151199;23;20025;-87
2022/04/13 11:28:38;;;;;;;4.00;3.47;;;;;;;;;;6126581;23;19928;-86
2022/04/13 11:31:10;;;;;;;6.25;3.75;;;;;;;;;;6153387;23;20436;-84
2022/04/13 11:33:50;;;;;;;4.75;4.35;;;;;;;;;;6159134;23;20018;-86
2022/04/13 11:36:20;;;;;;;4.82;3.88;;;;;;;;;;6152719;23;20021;-86
2022/04/13 11:39:08;;;;;;;11.95;4.95;;;;;;;;;;6150548;23;20033;-85
2022/04/13 11:41:36;;;;;;;6.25;3.72;;;;;;;;;;6159372;23;20029;-87
2022/04/13 11:44:17;;;;;;;3.80;3.25;;;;;;;;;;6162833;23;20021;-87
2022/04/13 11:46:45;;;;;;;;;;;;;;;;;;6155065;23;20025;-87
2022/04/13 11:49:13;;;;;;;5.57;3.13;;;;;;;;;;6159794;23;19920;-86
2022/04/13 11:51:41;;;;;;;5.20;3.38;;;;;;;;;;6162620;23;20020;-84
2022/04/13 11:54:10;;;;;;;4.53;4.13;;;;;;;;;;6156327;23;20233;-86
2022/04/13 11:56:39;;;;;;;10.75;4.88;;;;;;;;;;6162881;23;20014;-87
2022/04/13 11:59:07;;;;;;;4.40;4.00;;;;;;;;;;6152688;23;20330;-87
2022/04/13 12:01:44;;;;;;;5.22;3.97;;;;;;;;;;6159244;23;20021;-87
2022/04/13 12:04:13;;;;;;;3.97;3.53;;;;;;;;;;6162024;23;20024;-87
2022/04/13 12:06:42;;;;;;;9.27;4.72;;;;;;;;;;6152166;23;20029;-87
2022/04/13 12:09:10;;;;;;;3.47;3.17;;;;;;;;;;6160239;23;20010;-87
2022/04/13 12:11:38;;;;;;;5.82;3.47;;;;;;;;;;6125482;23;20021;-87
2022/04/13 12:14:07;;;;;;;5.80;3.33;;;;;;;;;;6125323;23;20018;-87
2022/04/13 12:16:39;;;;;;;4.70;2.88;;;;;;;;;;6126163;23;20342;-86
2022/04/13 12:19:10;;;;;;;4.78;2.85;;;;;;;;;;6152130;23;20025;-87
2022/04/13 12:21:39;;;;;;;9.70;4.85;;;;;;;;;;6157514;23;20017;-86
2022/04/13 12:24:09;;;;;;;3.53;2.90;;;;;;;;;;6161400;23;20018;-86
2022/04/13 12:26:38;;;;;;;4.53;3.13;;;;;;;;;;6154884;23;20044;-88
2022/04/13 12:29:14;;;;;;;3.90;3.45;;;;;;;;;;6160806;23;20016;-88
2022/04/13 12:31:51;;;;;;;4.53;3.70;;;;;;;;;;6162461;23;20014;-87
2022/04/13 12:34:23;;;;;;;2.78;2.58;;;;;;;;;;6155714;23;20029;-87
2022/04/13 12:36:51;;;;;;;4.28;3.50;;;;;;;;;;6160484;23;20350;-87
2022/04/13 12:39:24;;;;;;;4.60;3.90;;;;;;;;;;6150971;23;20441;-87
2022/04/13 12:41:52;;;;;;;4.53;4.22;;;;;;;;;;6158080;23;20458;-86
2022/04/13 12:44:20;;;;;;;5.93;3.40;;;;;;;;;;6126146;23;20457;-86
2022/04/13 12:46:48;;;;;;;4.93;3.88;;;;;;;;;;6154203;23;20029;-87
2022/04/13 12:49:25;;;;;;;5.65;3.65;;;;;;;;;;6159590;23;20009;-88
2022/04/13 12:51:55;;;;;;;3.40;3.10;;;;;;;;;;6162432;23;20056;-87
2022/04/13 12:54:23;;;;;;;4.90;3.00;;;;;;;;;;6153194;23;20045;-85
2022/04/13 12:56:51;;;;;;;5.93;3.70;;;;;;;;;;6160999;23;20017;-87
2022/04/13 12:59:21;;;;;;;4.28;3.72;;;;;;;;;;6151376;23;20017;-87
2022/04/13 13:01:49;;;;;;;3.67;3.10;;;;;;;;;;6158873;23;20013;-86
2022/04/13 13:04:19;;;;;;;3.45;3.15;;;;;;;;;;6162423;23;20457;-85
2022/04/13 13:06:56;;;;;;;6.63;4.00;;;;;;;;;;6153494;23;20036;-86
2022/04/13 13:09:27;;;;;;;3.25;3.00;;;;;;;;;;6160238;23;20021;-85
2022/04/13 13:12:07;;;;;;;4.25;3.92;;;;;;;;;;6162648;23;20024;-87
2022/04/13 13:14:36;;;;;;;3.10;2.90;;;;;;;;;;6127734;23;20033;-86
2022/04/13 13:17:39;;;;;;;12.32;4.25;;;;;;;;;;6163170;23;20462;-88
2022/04/13 13:20:14;;;;;;;7.20;4.93;;;;;;;;;;6152033;23;20017;-87
2022/04/13 13:22:50;;;;;;;4.60;3.67;;;;;;;;;;6126532;23;20464;-86
2022/04/13 13:25:19;;;;;;;3.53;3.15;;;;;;;;;;6162132;23;20033;-87
2022/04/13 13:27:57;;;;;;;4.95;2.35;;;;;;;;;;6163591;23;20013;-86
2022/04/13 13:30:26;;;;;;;3.92;3.15;;;;;;;;;;6127667;23;20025;-86
2022/04/13 13:32:55;;;;;;;3.35;3.05;;;;;;;;;;6163754;23;20491;-86
2022/04/13 13:35:31;;;;;;;4.32;3.72;;;;;;;;;;6150939;23;20034;-86
2022/04/13 13:38:13;;;;;;;3.85;2.78;;;;;;;;;;6126322;23;20037;-86
2022/04/13 13:40:42;;;;;;;2.40;2.20;;;;;;;;;;6162249;23;20018;-86
2022/04/13 13:43:16;;;;;;;2.75;2.47;;;;;;;;;;6154488;23;20029;-86
2022/04/13 13:45:46;;;;;;;3.63;2.53;;;;;;;;;;6160077;23;20018;-85
2022/04/13 13:48:21;;;;;;;8.15;3.60;;;;;;;;;;6163125;23;20017;-85
2022/04/13 13:50:53;;;;;;;4.20;3.20;;;;;;;;;;6127011;23;20496;-86
2022/04/13 13:53:22;;;;;;;4.95;2.92;;;;;;;;;;6160895;23;20026;-85
2022/04/13 13:55:50;;;;;;;14.98;3.97;;;;;;;;;;6161992;23;20014;-85
2022/04/13 13:58:19;;;;;;;2.90;2.30;;;;;;;;;;6157239;23;20029;-86
2022/04/13 14:00:47;;;;;;;4.95;2.63;;;;;;;;;;6162330;23;20017;-85
2022/04/13 14:03:15;;;;;;;5.78;4.18;;;;;;;;;;6153278;23;20030;-86
2022/04/13 14:05:44;;;;;;;4.57;3.65;;;;;;;;;;6156025;23;20029;-85
2022/04/13 14:08:13;;;;;;;7.68;5.00;;;;;;;;;;6163089;23;20017;-86
2022/04/13 14:10:42;;;;;;;7.40;3.45;;;;;;;;;;6151699;23;20063;-86
2022/04/13 14:13:11;;;;;;;3.50;3.25;;;;;;;;;;6161618;23;20416;-85
2022/04/13 14:15:39;;;;;;;3.72;3.42;;;;;;;;;;6154585;23;20009;-85
2022/04/13 14:18:07;;;;;;;5.57;4.00;;;;;;;;;;6126367;23;20028;-85
2022/04/13 14:20:36;;;;;;;6.22;2.90;;;;;;;;;;6137522;23;20014;-84
2022/04/13 14:23:04;;;;;;;5.32;3.80;;;;;;;;;;6101163;23;20021;-85
2022/04/13 14:25:33;;;;;;;3.90;3.60;;;;;;;;;;6159987;23;20029;-86
2022/04/13 14:28:01;;;;;;;8.52;3.38;;;;;;;;;;6126917;23;20025;-86
2022/04/13 14:30:30;;;;;;;4.38;3.67;;;;;;;;;;6102336;23;20029;-85
2022/04/13 14:32:58;;;;;;;6.40;3.67;;;;;;;;;;6163237;23;20013;-85
2022/04/13 14:35:27;;;;;;;4.40;4.00;;;;;;;;;;6152165;23;20030;-85
2022/04/13 14:37:55;;;;;;;3.28;3.00;;;;;;;;;;6157875;23;20329;-85
2022/04/13 14:40:24;;;;;;;4.32;3.42;;;;;;;;;;6163135;23;20018;-85
2022/04/13 14:42:52;;;;;;;6.65;3.17;;;;;;;;;;6155084;23;20056;-86
2022/04/13 14:45:21;;;;;;;4.22;3.50;;;;;;;;;;6160951;23;20341;-85
2022/04/13 14:47:49;;;;;;;3.95;3.40;;;;;;;;;;6162805;23;20664;-85
2022/04/13 14:50:18;;;;;;;3.05;2.80;;;;;;;;;;6156627;23;20476;-86
2022/04/13 14:52:46;;;;;;;3.95;3.50;;;;;;;;;;6162778;23;20014;-85
2022/04/13 14:55:14;;;;;;;4.18;3.08;;;;;;;;;;6125783;23;20033;-85
2022/04/13 14:57:43;;;;;;;2.92;2.58;;;;;;;;;;6157394;23;20032;-85